sensor_id;sensor_type;location;lat;lon;timestamp;P1;durP1;ratioP1;P2;durP2;ratioP2
42338;SDS011;27993;45.392;10.918;2022-10-16T00:02:20;55.07;;;35.83;;
42338;SDS011;27993;45.392;10.918;2022-10-16T00:04:50;84.93;;;39.03;;
42338;SDS011;27993;45.392;10.918;2022-10-16T00:07:21;66.80;;;38.00;;
42338;SDS011;27993;45.392;10.918;2022-10-16T00:09:52;55.10;;;32.67;;
42338;SDS011;27993;45.392;10.918;2022-10-16T00:12:22;60.22;;;39.15;;
42338;SDS011;27993;45.392;10.918;2022-10-16T00:14:53;58.20;;;37.05;;
42338;SDS011;27993;45.392;10.918;2022-10-16T00:17:24;57.83;;;37.17;;
42338;SDS011;27993;45.392;10.918;2022-10-16T00:19:54;60.80;;;37.07;;
42338;SDS011;27993;45.392;10.918;2022-10-16T00:22:25;64.50;;;38.00;;
42338;SDS011;27993;45.392;10.918;2022-10-16T00:24:56;61.63;;;36.70;;
42338;SDS011;27993;45.392;10.918;2022-10-16T00:27:27;57.38;;;36.10;;
42338;SDS011;27993;45.392;10.918;2022-10-16T00:29:57;64.72;;;37.88;;
42338;SDS011;27993;45.392;10.918;2022-10-16T00:32:28;65.07;;;38.93;;
42338;SDS011;27993;45.392;10.918;2022-10-16T00:34:58;56.67;;;37.50;;
42338;SDS011;27993;45.392;10.918;2022-10-16T00:37:29;65.65;;;35.25;;
42338;SDS011;27993;45.392;10.918;2022-10-16T00:40:00;64.23;;;37.97;;
42338;SDS011;27993;45.392;10.918;2022-10-16T00:42:30;73.20;;;39.00;;
42338;SDS011;27993;45.392;10.918;2022-10-16T00:45:02;64.35;;;37.42;;
42338;SDS011;27993;45.392;10.918;2022-10-16T00:47:41;64.78;;;38.42;;
42338;SDS011;27993;45.392;10.918;2022-10-16T00:50:32;58.20;;;36.58;;
42338;SDS011;27993;45.392;10.918;2022-10-16T00:53:04;59.88;;;36.08;;
42338;SDS011;27993;45.392;10.918;2022-10-16T00:55:34;69.50;;;38.80;;
42338;SDS011;27993;45.392;10.918;2022-10-16T01:00:37;61.20;;;37.33;;
42338;SDS011;27993;45.392;10.918;2022-10-16T01:06:09;66.40;;;38.10;;
42338;SDS011;27993;45.392;10.918;2022-10-16T01:11:57;69.22;;;40.12;;
42338;SDS011;27993;45.392;10.918;2022-10-16T01:14:40;64.30;;;39.72;;
42338;SDS011;27993;45.392;10.918;2022-10-16T01:17:34;63.40;;;38.70;;
42338;SDS011;27993;45.392;10.918;2022-10-16T01:23:10;57.38;;;36.95;;
42338;SDS011;27993;45.392;10.918;2022-10-16T01:31:39;62.08;;;36.53;;
42338;SDS011;27993;45.392;10.918;2022-10-16T01:34:14;61.37;;;36.00;;
42338;SDS011;27993;45.392;10.918;2022-10-16T01:36:53;71.87;;;35.42;;
42338;SDS011;27993;45.392;10.918;2022-10-16T01:39:29;57.95;;;36.90;;
42338;SDS011;27993;45.392;10.918;2022-10-16T01:44:43;63.45;;;37.67;;
42338;SDS011;27993;45.392;10.918;2022-10-16T01:47:16;67.37;;;37.65;;
42338;SDS011;27993;45.392;10.918;2022-10-16T01:49:48;58.10;;;38.53;;
42338;SDS011;27993;45.392;10.918;2022-10-16T01:52:21;59.60;;;39.22;;
42338;SDS011;27993;45.392;10.918;2022-10-16T01:54:55;54.22;;;35.50;;
42338;SDS011;27993;45.392;10.918;2022-10-16T01:57:28;59.03;;;35.45;;
42338;SDS011;27993;45.392;10.918;2022-10-16T02:00:01;56.97;;;37.97;;
42338;SDS011;27993;45.392;10.918;2022-10-16T02:02:35;61.05;;;36.13;;
42338;SDS011;27993;45.392;10.918;2022-10-16T02:05:15;63.70;;;37.38;;
42338;SDS011;27993;45.392;10.918;2022-10-16T02:07:48;67.25;;;39.42;;
42338;SDS011;27993;45.392;10.918;2022-10-16T02:10:19;64.97;;;37.15;;
42338;SDS011;27993;45.392;10.918;2022-10-16T02:12:53;53.63;;;37.58;;
42338;SDS011;27993;45.392;10.918;2022-10-16T02:15:29;59.90;;;39.53;;
42338;SDS011;27993;45.392;10.918;2022-10-16T02:18:00;59.83;;;38.17;;
42338;SDS011;27993;45.392;10.918;2022-10-16T02:20:34;62.10;;;37.75;;
42338;SDS011;27993;45.392;10.918;2022-10-16T02:29:06;51.28;;;34.33;;
42338;SDS011;27993;45.392;10.918;2022-10-16T02:31:43;61.83;;;39.00;;
42338;SDS011;27993;45.392;10.918;2022-10-16T02:34:18;56.47;;;37.80;;
42338;SDS011;27993;45.392;10.918;2022-10-16T02:36:54;61.17;;;37.08;;
42338;SDS011;27993;45.392;10.918;2022-10-16T02:39:27;62.53;;;38.00;;
42338;SDS011;27993;45.392;10.918;2022-10-16T02:41:59;69.32;;;38.00;;
42338;SDS011;27993;45.392;10.918;2022-10-16T02:44:30;54.67;;;37.72;;
42338;SDS011;27993;45.392;10.918;2022-10-16T02:47:00;59.10;;;37.28;;
42338;SDS011;27993;45.392;10.918;2022-10-16T02:49:31;60.10;;;38.60;;
42338;SDS011;27993;45.392;10.918;2022-10-16T02:52:01;60.50;;;37.23;;
42338;SDS011;27993;45.392;10.918;2022-10-16T02:54:32;65.50;;;38.10;;
42338;SDS011;27993;45.392;10.918;2022-10-16T02:57:03;52.65;;;34.72;;
42338;SDS011;27993;45.392;10.918;2022-10-16T02:59:33;66.07;;;37.37;;
42338;SDS011;27993;45.392;10.918;2022-10-16T03:02:04;68.17;;;39.60;;
42338;SDS011;27993;45.392;10.918;2022-10-16T03:04:35;59.45;;;39.22;;
42338;SDS011;27993;45.392;10.918;2022-10-16T03:07:06;65.65;;;39.45;;
42338;SDS011;27993;45.392;10.918;2022-10-16T03:12:07;59.77;;;39.37;;
42338;SDS011;27993;45.392;10.918;2022-10-16T03:14:38;54.20;;;37.67;;
42338;SDS011;27993;45.392;10.918;2022-10-16T03:17:09;60.58;;;36.78;;
42338;SDS011;27993;45.392;10.918;2022-10-16T03:19:40;65.70;;;38.90;;
42338;SDS011;27993;45.392;10.918;2022-10-16T03:22:11;62.70;;;38.17;;
42338;SDS011;27993;45.392;10.918;2022-10-16T03:24:41;64.60;;;38.00;;
42338;SDS011;27993;45.392;10.918;2022-10-16T03:27:12;62.92;;;38.55;;
42338;SDS011;27993;45.392;10.918;2022-10-16T03:29:42;56.00;;;37.33;;
42338;SDS011;27993;45.392;10.918;2022-10-16T03:32:13;57.57;;;37.83;;
42338;SDS011;27993;45.392;10.918;2022-10-16T03:34:44;61.75;;;38.53;;
42338;SDS011;27993;45.392;10.918;2022-10-16T03:37:14;61.85;;;38.30;;
42338;SDS011;27993;45.392;10.918;2022-10-16T03:39:45;56.00;;;37.22;;
42338;SDS011;27993;45.392;10.918;2022-10-16T03:42:18;60.25;;;36.80;;
42338;SDS011;27993;45.392;10.918;2022-10-16T03:44:49;58.05;;;35.97;;
42338;SDS011;27993;45.392;10.918;2022-10-16T03:47:20;62.45;;;41.37;;
42338;SDS011;27993;45.392;10.918;2022-10-16T03:49:53;71.78;;;38.63;;
42338;SDS011;27993;45.392;10.918;2022-10-16T03:52:23;58.47;;;37.23;;
42338;SDS011;27993;45.392;10.918;2022-10-16T03:54:54;65.20;;;38.13;;
42338;SDS011;27993;45.392;10.918;2022-10-16T03:57:28;63.08;;;36.28;;
42338;SDS011;27993;45.392;10.918;2022-10-16T03:59:58;65.35;;;39.47;;
42338;SDS011;27993;45.392;10.918;2022-10-16T04:02:29;71.65;;;40.85;;
42338;SDS011;27993;45.392;10.918;2022-10-16T04:04:59;66.10;;;38.33;;
42338;SDS011;27993;45.392;10.918;2022-10-16T04:07:30;61.75;;;40.35;;
42338;SDS011;27993;45.392;10.918;2022-10-16T04:10:01;69.53;;;41.53;;
42338;SDS011;27993;45.392;10.918;2022-10-16T04:12:32;67.28;;;39.33;;
42338;SDS011;27993;45.392;10.918;2022-10-16T04:15:02;66.12;;;39.25;;
42338;SDS011;27993;45.392;10.918;2022-10-16T04:17:33;60.03;;;39.17;;
42338;SDS011;27993;45.392;10.918;2022-10-16T04:20:04;68.30;;;38.60;;
42338;SDS011;27993;45.392;10.918;2022-10-16T04:22:35;75.47;;;40.12;;
42338;SDS011;27993;45.392;10.918;2022-10-16T04:25:05;58.95;;;34.70;;
42338;SDS011;27993;45.392;10.918;2022-10-16T04:27:37;73.53;;;40.40;;
42338;SDS011;27993;45.392;10.918;2022-10-16T04:30:08;69.25;;;38.47;;
42338;SDS011;27993;45.392;10.918;2022-10-16T04:32:39;72.47;;;41.40;;
42338;SDS011;27993;45.392;10.918;2022-10-16T04:35:10;62.50;;;39.05;;
42338;SDS011;27993;45.392;10.918;2022-10-16T04:37:40;61.07;;;37.90;;
42338;SDS011;27993;45.392;10.918;2022-10-16T04:40:11;69.23;;;40.20;;
42338;SDS011;27993;45.392;10.918;2022-10-16T04:42:43;61.28;;;37.10;;
42338;SDS011;27993;45.392;10.918;2022-10-16T04:45:13;65.70;;;37.80;;
42338;SDS011;27993;45.392;10.918;2022-10-16T04:47:44;61.33;;;37.53;;
42338;SDS011;27993;45.392;10.918;2022-10-16T04:50:15;63.40;;;38.67;;
42338;SDS011;27993;45.392;10.918;2022-10-16T04:52:45;70.15;;;37.33;;
42338;SDS011;27993;45.392;10.918;2022-10-16T04:55:16;69.20;;;40.13;;
42338;SDS011;27993;45.392;10.918;2022-10-16T04:57:47;68.93;;;39.53;;
42338;SDS011;27993;45.392;10.918;2022-10-16T05:00:17;70.75;;;41.17;;
42338;SDS011;27993;45.392;10.918;2022-10-16T05:02:49;57.25;;;38.30;;
42338;SDS011;27993;45.392;10.918;2022-10-16T05:05:20;61.88;;;37.75;;
42338;SDS011;27993;45.392;10.918;2022-10-16T05:07:51;77.35;;;41.00;;
42338;SDS011;27993;45.392;10.918;2022-10-16T05:10:22;63.40;;;38.58;;
42338;SDS011;27993;45.392;10.918;2022-10-16T05:12:53;71.95;;;38.30;;
42338;SDS011;27993;45.392;10.918;2022-10-16T05:15:23;71.77;;;40.63;;
42338;SDS011;27993;45.392;10.918;2022-10-16T05:17:55;68.28;;;42.13;;
42338;SDS011;27993;45.392;10.918;2022-10-16T05:20:26;67.18;;;38.35;;
42338;SDS011;27993;45.392;10.918;2022-10-16T05:22:56;75.00;;;40.90;;
42338;SDS011;27993;45.392;10.918;2022-10-16T05:25:27;74.37;;;39.60;;
42338;SDS011;27993;45.392;10.918;2022-10-16T05:27:57;62.30;;;40.63;;
42338;SDS011;27993;45.392;10.918;2022-10-16T05:30:28;52.20;;;37.00;;
42338;SDS011;27993;45.392;10.918;2022-10-16T05:32:59;65.22;;;41.15;;
42338;SDS011;27993;45.392;10.918;2022-10-16T05:35:30;71.85;;;41.55;;
42338;SDS011;27993;45.392;10.918;2022-10-16T05:38:00;73.60;;;43.83;;
42338;SDS011;27993;45.392;10.918;2022-10-16T05:40:31;65.70;;;39.72;;
42338;SDS011;27993;45.392;10.918;2022-10-16T05:43:01;60.83;;;39.00;;
42338;SDS011;27993;45.392;10.918;2022-10-16T05:45:32;74.47;;;40.70;;
42338;SDS011;27993;45.392;10.918;2022-10-16T05:48:03;78.37;;;41.03;;
42338;SDS011;27993;45.392;10.918;2022-10-16T05:50:34;67.07;;;39.65;;
42338;SDS011;27993;45.392;10.918;2022-10-16T05:53:04;66.27;;;39.87;;
42338;SDS011;27993;45.392;10.918;2022-10-16T05:55:35;79.78;;;40.42;;
42338;SDS011;27993;45.392;10.918;2022-10-16T05:58:05;81.00;;;41.50;;
42338;SDS011;27993;45.392;10.918;2022-10-16T06:00:36;72.83;;;44.20;;
42338;SDS011;27993;45.392;10.918;2022-10-16T06:03:07;65.03;;;41.23;;
42338;SDS011;27993;45.392;10.918;2022-10-16T06:05:37;71.82;;;41.78;;
42338;SDS011;27993;45.392;10.918;2022-10-16T06:08:08;74.20;;;42.40;;
42338;SDS011;27993;45.392;10.918;2022-10-16T06:10:39;68.50;;;40.28;;
42338;SDS011;27993;45.392;10.918;2022-10-16T06:13:10;62.05;;;41.60;;
42338;SDS011;27993;45.392;10.918;2022-10-16T06:15:50;55.72;;;37.22;;
42338;SDS011;27993;45.392;10.918;2022-10-16T06:18:22;66.40;;;38.85;;
42338;SDS011;27993;45.392;10.918;2022-10-16T06:20:52;67.22;;;41.58;;
42338;SDS011;27993;45.392;10.918;2022-10-16T06:23:23;65.55;;;42.90;;
42338;SDS011;27993;45.392;10.918;2022-10-16T06:26:03;62.28;;;39.30;;
42338;SDS011;27993;45.392;10.918;2022-10-16T06:28:42;69.12;;;44.60;;
42338;SDS011;27993;45.392;10.918;2022-10-16T06:31:13;72.78;;;43.10;;
42338;SDS011;27993;45.392;10.918;2022-10-16T06:33:44;74.32;;;41.63;;
42338;SDS011;27993;45.392;10.918;2022-10-16T06:36:18;65.68;;;40.38;;
42338;SDS011;27993;45.392;10.918;2022-10-16T06:38:48;64.07;;;41.40;;
42338;SDS011;27993;45.392;10.918;2022-10-16T06:41:20;72.82;;;43.38;;
42338;SDS011;27993;45.392;10.918;2022-10-16T06:43:52;75.85;;;42.60;;
42338;SDS011;27993;45.392;10.918;2022-10-16T06:46:23;67.07;;;42.47;;
42338;SDS011;27993;45.392;10.918;2022-10-16T06:48:55;64.93;;;40.70;;
42338;SDS011;27993;45.392;10.918;2022-10-16T06:51:26;64.68;;;40.45;;
42338;SDS011;27993;45.392;10.918;2022-10-16T06:53:56;68.95;;;42.05;;
42338;SDS011;27993;45.392;10.918;2022-10-16T06:56:27;69.62;;;42.88;;
42338;SDS011;27993;45.392;10.918;2022-10-16T06:59:00;74.45;;;43.35;;
42338;SDS011;27993;45.392;10.918;2022-10-16T07:04:02;83.37;;;42.30;;
42338;SDS011;27993;45.392;10.918;2022-10-16T07:06:33;72.43;;;43.55;;
42338;SDS011;27993;45.392;10.918;2022-10-16T07:09:05;77.22;;;45.67;;
42338;SDS011;27993;45.392;10.918;2022-10-16T07:11:39;79.53;;;45.53;;
42338;SDS011;27993;45.392;10.918;2022-10-16T07:14:17;73.43;;;44.25;;
42338;SDS011;27993;45.392;10.918;2022-10-16T07:16:49;80.32;;;43.38;;
42338;SDS011;27993;45.392;10.918;2022-10-16T07:19:19;65.87;;;42.33;;
42338;SDS011;27993;45.392;10.918;2022-10-16T07:21:50;73.65;;;40.60;;
42338;SDS011;27993;45.392;10.918;2022-10-16T07:24:21;72.25;;;41.42;;
42338;SDS011;27993;45.392;10.918;2022-10-16T07:26:54;90.00;;;43.60;;
42338;SDS011;27993;45.392;10.918;2022-10-16T07:29:25;68.82;;;43.13;;
42338;SDS011;27993;45.392;10.918;2022-10-16T07:31:56;69.80;;;41.97;;
42338;SDS011;27993;45.392;10.918;2022-10-16T07:34:26;55.75;;;39.72;;
42338;SDS011;27993;45.392;10.918;2022-10-16T07:36:57;70.20;;;43.55;;
42338;SDS011;27993;45.392;10.918;2022-10-16T07:39:28;69.65;;;43.65;;
42338;SDS011;27993;45.392;10.918;2022-10-16T07:41:58;73.50;;;41.97;;
42338;SDS011;27993;45.392;10.918;2022-10-16T07:44:29;77.95;;;42.22;;
42338;SDS011;27993;45.392;10.918;2022-10-16T07:46:59;68.18;;;44.20;;
42338;SDS011;27993;45.392;10.918;2022-10-16T07:49:30;64.97;;;42.33;;
42338;SDS011;27993;45.392;10.918;2022-10-16T07:52:01;84.30;;;42.72;;
42338;SDS011;27993;45.392;10.918;2022-10-16T07:54:32;72.90;;;42.78;;
42338;SDS011;27993;45.392;10.918;2022-10-16T07:57:02;77.72;;;45.92;;
42338;SDS011;27993;45.392;10.918;2022-10-16T07:59:33;66.35;;;44.50;;
42338;SDS011;27993;45.392;10.918;2022-10-16T08:02:03;74.87;;;46.42;;
42338;SDS011;27993;45.392;10.918;2022-10-16T08:04:34;79.62;;;46.53;;
42338;SDS011;27993;45.392;10.918;2022-10-16T08:07:06;79.95;;;46.63;;
42338;SDS011;27993;45.392;10.918;2022-10-16T08:09:37;73.10;;;47.45;;
42338;SDS011;27993;45.392;10.918;2022-10-16T08:12:08;85.47;;;47.35;;
42338;SDS011;27993;45.392;10.918;2022-10-16T08:14:40;66.43;;;45.38;;
42338;SDS011;27993;45.392;10.918;2022-10-16T08:17:13;66.25;;;45.47;;
42338;SDS011;27993;45.392;10.918;2022-10-16T08:19:47;61.65;;;44.88;;
42338;SDS011;27993;45.392;10.918;2022-10-16T08:22:17;76.43;;;45.72;;
42338;SDS011;27993;45.392;10.918;2022-10-16T08:24:48;81.68;;;47.62;;
42338;SDS011;27993;45.392;10.918;2022-10-16T08:27:19;70.12;;;46.88;;
42338;SDS011;27993;45.392;10.918;2022-10-16T08:29:49;64.32;;;45.55;;
42338;SDS011;27993;45.392;10.918;2022-10-16T08:34:50;58.07;;;44.53;;
42338;SDS011;27993;45.392;10.918;2022-10-16T08:37:21;63.83;;;45.75;;
42338;SDS011;27993;45.392;10.918;2022-10-16T08:39:51;63.20;;;42.20;;
42338;SDS011;27993;45.392;10.918;2022-10-16T08:48:00;54.78;;;40.63;;
42338;SDS011;27993;45.392;10.918;2022-10-16T08:50:36;59.45;;;41.83;;
42338;SDS011;27993;45.392;10.918;2022-10-16T08:53:13;63.78;;;43.58;;
42338;SDS011;27993;45.392;10.918;2022-10-16T08:55:51;66.68;;;43.40;;
42338;SDS011;27993;45.392;10.918;2022-10-16T08:58:26;50.47;;;40.45;;
42338;SDS011;27993;45.392;10.918;2022-10-16T09:01:00;56.00;;;39.35;;
42338;SDS011;27993;45.392;10.918;2022-10-16T09:03:58;66.05;;;41.10;;
42338;SDS011;27993;45.392;10.918;2022-10-16T09:09:13;58.28;;;39.78;;
42338;SDS011;27993;45.392;10.918;2022-10-16T09:23:18;61.65;;;44.60;;
42338;SDS011;27993;45.392;10.918;2022-10-16T09:25:54;60.20;;;42.30;;
42338;SDS011;27993;45.392;10.918;2022-10-16T09:28:27;52.67;;;42.38;;
42338;SDS011;27993;45.392;10.918;2022-10-16T09:30:57;59.10;;;44.00;;
42338;SDS011;27993;45.392;10.918;2022-10-16T09:33:35;66.72;;;42.25;;
42338;SDS011;27993;45.392;10.918;2022-10-16T09:36:09;53.65;;;43.08;;
42338;SDS011;27993;45.392;10.918;2022-10-16T09:38:44;66.82;;;43.13;;
42338;SDS011;27993;45.392;10.918;2022-10-16T09:41:19;61.10;;;44.05;;
42338;SDS011;27993;45.392;10.918;2022-10-16T09:43:52;60.45;;;41.92;;
42338;SDS011;27993;45.392;10.918;2022-10-16T09:46:30;62.03;;;43.00;;
42338;SDS011;27993;45.392;10.918;2022-10-16T09:49:17;52.58;;;40.78;;
42338;SDS011;27993;45.392;10.918;2022-10-16T09:52:09;44.03;;;38.13;;
42338;SDS011;27993;45.392;10.918;2022-10-16T09:54:49;49.00;;;37.10;;
42338;SDS011;27993;45.392;10.918;2022-10-16T09:57:21;49.45;;;38.78;;
42338;SDS011;27993;45.392;10.918;2022-10-16T09:59:54;50.42;;;40.30;;
42338;SDS011;27993;45.392;10.918;2022-10-16T10:02:35;50.08;;;38.15;;
42338;SDS011;27993;45.392;10.918;2022-10-16T10:05:21;55.53;;;35.00;;
42338;SDS011;27993;45.392;10.918;2022-10-16T10:07:56;48.75;;;36.50;;
42338;SDS011;27993;45.392;10.918;2022-10-16T10:10:30;44.25;;;34.58;;
42338;SDS011;27993;45.392;10.918;2022-10-16T10:13:03;43.75;;;37.15;;
42338;SDS011;27993;45.392;10.918;2022-10-16T10:15:34;48.63;;;37.65;;
42338;SDS011;27993;45.392;10.918;2022-10-16T10:18:15;51.72;;;37.33;;
42338;SDS011;27993;45.392;10.918;2022-10-16T10:20:59;44.80;;;35.28;;
42338;SDS011;27993;45.392;10.918;2022-10-16T10:23:31;49.10;;;37.63;;
42338;SDS011;27993;45.392;10.918;2022-10-16T10:33:45;42.62;;;33.65;;
42338;SDS011;27993;45.392;10.918;2022-10-16T10:36:32;45.47;;;35.15;;
42338;SDS011;27993;45.392;10.918;2022-10-16T10:39:17;55.28;;;36.83;;
42338;SDS011;27993;45.392;10.918;2022-10-16T10:48:14;42.60;;;37.10;;
42338;SDS011;27993;45.392;10.918;2022-10-16T10:51:07;49.13;;;37.30;;
42338;SDS011;27993;45.392;10.918;2022-10-16T11:02:00;52.90;;;35.55;;
42338;SDS011;27993;45.392;10.918;2022-10-16T11:07:21;51.00;;;39.83;;
42338;SDS011;27993;45.392;10.918;2022-10-16T11:10:13;51.85;;;38.92;;
42338;SDS011;27993;45.392;10.918;2022-10-16T11:12:52;54.55;;;39.72;;
42338;SDS011;27993;45.392;10.918;2022-10-16T11:15:38;51.50;;;39.00;;
42338;SDS011;27993;45.392;10.918;2022-10-16T11:21:12;50.35;;;37.67;;
42338;SDS011;27993;45.392;10.918;2022-10-16T11:23:47;53.42;;;37.70;;
42338;SDS011;27993;45.392;10.918;2022-10-16T11:26:39;49.50;;;37.38;;
42338;SDS011;27993;45.392;10.918;2022-10-16T11:29:15;50.58;;;38.90;;
42338;SDS011;27993;45.392;10.918;2022-10-16T11:31:53;64.57;;;37.47;;
42338;SDS011;27993;45.392;10.918;2022-10-16T11:34:32;53.55;;;38.78;;
42338;SDS011;27993;45.392;10.918;2022-10-16T11:37:20;57.47;;;40.03;;
42338;SDS011;27993;45.392;10.918;2022-10-16T11:39:58;55.40;;;40.47;;
42338;SDS011;27993;45.392;10.918;2022-10-16T11:42:37;57.20;;;36.70;;
42338;SDS011;27993;45.392;10.918;2022-10-16T11:45:23;58.47;;;38.50;;
42338;SDS011;27993;45.392;10.918;2022-10-16T11:48:08;44.95;;;36.20;;
42338;SDS011;27993;45.392;10.918;2022-10-16T11:56:55;63.85;;;39.67;;
42338;SDS011;27993;45.392;10.918;2022-10-16T12:00:18;60.53;;;37.60;;
42338;SDS011;27993;45.392;10.918;2022-10-16T12:08:11;57.55;;;38.00;;
42338;SDS011;27993;45.392;10.918;2022-10-16T12:10:46;60.70;;;39.83;;
42338;SDS011;27993;45.392;10.918;2022-10-16T12:13:30;51.63;;;38.97;;
42338;SDS011;27993;45.392;10.918;2022-10-16T12:18:43;54.45;;;33.50;;
42338;SDS011;27993;45.392;10.918;2022-10-16T12:21:15;50.45;;;35.70;;
42338;SDS011;27993;45.392;10.918;2022-10-16T12:24:00;56.20;;;36.90;;
42338;SDS011;27993;45.392;10.918;2022-10-16T12:26:37;46.78;;;36.83;;
42338;SDS011;27993;45.392;10.918;2022-10-16T12:32:19;48.30;;;36.63;;
42338;SDS011;27993;45.392;10.918;2022-10-16T12:34:52;58.47;;;38.00;;
42338;SDS011;27993;45.392;10.918;2022-10-16T12:37:24;53.92;;;38.92;;
42338;SDS011;27993;45.392;10.918;2022-10-16T12:40:22;46.63;;;36.58;;
42338;SDS011;27993;45.392;10.918;2022-10-16T12:43:10;51.30;;;37.75;;
42338;SDS011;27993;45.392;10.918;2022-10-16T12:45:42;50.63;;;37.22;;
42338;SDS011;27993;45.392;10.918;2022-10-16T12:48:21;48.60;;;34.85;;
42338;SDS011;27993;45.392;10.918;2022-10-16T12:50:52;60.83;;;37.88;;
42338;SDS011;27993;45.392;10.918;2022-10-16T12:53:24;47.85;;;35.30;;
42338;SDS011;27993;45.392;10.918;2022-10-16T13:07:02;48.35;;;33.60;;
42338;SDS011;27993;45.392;10.918;2022-10-16T13:15:25;48.90;;;35.00;;
42338;SDS011;27993;45.392;10.918;2022-10-16T13:18:22;51.22;;;33.97;;
42338;SDS011;27993;45.392;10.918;2022-10-16T13:27:28;49.80;;;34.20;;
42338;SDS011;27993;45.392;10.918;2022-10-16T13:29:54;53.90;;;37.53;;
42338;SDS011;27993;45.392;10.918;2022-10-16T13:32:39;44.22;;;33.75;;
42338;SDS011;27993;45.392;10.918;2022-10-16T13:35:23;68.60;;;37.17;;
42338;SDS011;27993;45.392;10.918;2022-10-16T13:38:05;57.45;;;34.72;;
42338;SDS011;27993;45.392;10.918;2022-10-16T13:40:59;42.95;;;32.58;;
42338;SDS011;27993;45.392;10.918;2022-10-16T13:46:11;47.10;;;31.70;;
42338;SDS011;27993;45.392;10.918;2022-10-16T13:48:44;44.03;;;31.80;;
42338;SDS011;27993;45.392;10.918;2022-10-16T13:51:25;45.78;;;34.70;;
42338;SDS011;27993;45.392;10.918;2022-10-16T13:53:57;51.35;;;32.90;;
42338;SDS011;27993;45.392;10.918;2022-10-16T13:56:29;50.80;;;31.05;;
42338;SDS011;27993;45.392;10.918;2022-10-16T13:59:02;46.37;;;34.53;;
42338;SDS011;27993;45.392;10.918;2022-10-16T14:01:40;48.53;;;32.20;;
42338;SDS011;27993;45.392;10.918;2022-10-16T14:04:13;48.03;;;33.75;;
42338;SDS011;27993;45.392;10.918;2022-10-16T14:06:45;45.03;;;32.08;;
42338;SDS011;27993;45.392;10.918;2022-10-16T14:09:23;49.40;;;34.97;;
42338;SDS011;27993;45.392;10.918;2022-10-16T14:12:00;50.23;;;34.87;;
42338;SDS011;27993;45.392;10.918;2022-10-16T14:14:43;54.38;;;33.17;;
42338;SDS011;27993;45.392;10.918;2022-10-16T14:17:20;44.28;;;35.03;;
42338;SDS011;27993;45.392;10.918;2022-10-16T14:20:00;51.37;;;34.08;;
42338;SDS011;27993;45.392;10.918;2022-10-16T14:22:40;42.92;;;31.08;;
42338;SDS011;27993;45.392;10.918;2022-10-16T14:30:49;53.45;;;33.55;;
42338;SDS011;27993;45.392;10.918;2022-10-16T14:38:42;45.42;;;31.15;;
42338;SDS011;27993;45.392;10.918;2022-10-16T14:41:20;45.10;;;30.77;;
42338;SDS011;27993;45.392;10.918;2022-10-16T14:43:54;41.60;;;32.15;;
42338;SDS011;27993;45.392;10.918;2022-10-16T14:46:28;43.87;;;30.80;;
42338;SDS011;27993;45.392;10.918;2022-10-16T14:51:56;39.83;;;30.00;;
42338;SDS011;27993;45.392;10.918;2022-10-16T14:54:28;46.60;;;31.75;;
42338;SDS011;27993;45.392;10.918;2022-10-16T14:59:33;36.50;;;26.00;;
42338;SDS011;27993;45.392;10.918;2022-10-16T15:04:48;47.95;;;29.12;;
42338;SDS011;27993;45.392;10.918;2022-10-16T15:07:19;45.10;;;30.48;;
42338;SDS011;27993;45.392;10.918;2022-10-16T15:12:20;44.97;;;31.27;;
42338;SDS011;27993;45.392;10.918;2022-10-16T15:17:21;44.17;;;30.43;;
42338;SDS011;27993;45.392;10.918;2022-10-16T15:22:22;40.97;;;29.87;;
42338;SDS011;27993;45.392;10.918;2022-10-16T15:27:23;46.53;;;28.67;;
42338;SDS011;27993;45.392;10.918;2022-10-16T15:32:24;44.93;;;29.90;;
42338;SDS011;27993;45.392;10.918;2022-10-16T15:37:25;41.67;;;27.70;;
42338;SDS011;27993;45.392;10.918;2022-10-16T15:39:56;45.28;;;29.37;;
42338;SDS011;27993;45.392;10.918;2022-10-16T15:42:27;43.47;;;27.87;;
42338;SDS011;27993;45.392;10.918;2022-10-16T15:47:28;41.50;;;28.87;;
42338;SDS011;27993;45.392;10.918;2022-10-16T15:52:29;41.23;;;28.07;;
42338;SDS011;27993;45.392;10.918;2022-10-16T15:55:01;40.05;;;30.35;;
42338;SDS011;27993;45.392;10.918;2022-10-16T15:57:32;46.88;;;30.77;;
42338;SDS011;27993;45.392;10.918;2022-10-16T16:00:03;41.20;;;30.02;;
42338;SDS011;27993;45.392;10.918;2022-10-16T16:02:38;41.08;;;29.25;;
42338;SDS011;27993;45.392;10.918;2022-10-16T16:05:10;45.03;;;32.13;;
42338;SDS011;27993;45.392;10.918;2022-10-16T16:07:41;55.75;;;33.55;;
42338;SDS011;27993;45.392;10.918;2022-10-16T16:10:12;44.63;;;31.67;;
42338;SDS011;27993;45.392;10.918;2022-10-16T16:12:42;48.87;;;34.38;;
42338;SDS011;27993;45.392;10.918;2022-10-16T16:15:13;60.45;;;34.88;;
42338;SDS011;27993;45.392;10.918;2022-10-16T16:17:43;65.90;;;37.78;;
42338;SDS011;27993;45.392;10.918;2022-10-16T16:20:14;56.33;;;34.78;;
42338;SDS011;27993;45.392;10.918;2022-10-16T16:22:45;51.85;;;36.50;;
42338;SDS011;27993;45.392;10.918;2022-10-16T16:25:16;53.50;;;35.70;;
42338;SDS011;27993;45.392;10.918;2022-10-16T16:27:50;55.90;;;35.67;;
42338;SDS011;27993;45.392;10.918;2022-10-16T16:30:20;56.13;;;37.42;;
42338;SDS011;27993;45.392;10.918;2022-10-16T16:32:51;58.45;;;34.88;;
42338;SDS011;27993;45.392;10.918;2022-10-16T16:35:22;46.97;;;34.65;;
42338;SDS011;27993;45.392;10.918;2022-10-16T16:37:52;52.35;;;34.58;;
42338;SDS011;27993;45.392;10.918;2022-10-16T16:40:23;52.38;;;36.60;;
42338;SDS011;27993;45.392;10.918;2022-10-16T16:42:53;45.60;;;32.83;;
42338;SDS011;27993;45.392;10.918;2022-10-16T16:45:24;47.88;;;34.60;;
42338;SDS011;27993;45.392;10.918;2022-10-16T16:47:55;52.05;;;37.38;;
42338;SDS011;27993;45.392;10.918;2022-10-16T16:50:26;57.85;;;37.45;;
42338;SDS011;27993;45.392;10.918;2022-10-16T16:52:56;55.75;;;38.17;;
42338;SDS011;27993;45.392;10.918;2022-10-16T16:55:27;51.35;;;34.08;;
42338;SDS011;27993;45.392;10.918;2022-10-16T16:57:58;54.90;;;33.03;;
42338;SDS011;27993;45.392;10.918;2022-10-16T17:00:28;57.88;;;34.95;;
42338;SDS011;27993;45.392;10.918;2022-10-16T17:03:00;57.00;;;34.92;;
42338;SDS011;27993;45.392;10.918;2022-10-16T17:05:31;55.75;;;35.72;;
42338;SDS011;27993;45.392;10.918;2022-10-16T17:08:07;57.08;;;34.70;;
42338;SDS011;27993;45.392;10.918;2022-10-16T17:10:42;55.25;;;35.75;;
42338;SDS011;27993;45.392;10.918;2022-10-16T17:13:13;54.53;;;35.28;;
42338;SDS011;27993;45.392;10.918;2022-10-16T17:15:47;51.17;;;34.60;;
42338;SDS011;27993;45.392;10.918;2022-10-16T17:18:20;55.58;;;34.00;;
42338;SDS011;27993;45.392;10.918;2022-10-16T17:20:52;51.15;;;35.28;;
42338;SDS011;27993;45.392;10.918;2022-10-16T17:23:30;46.97;;;33.85;;
42338;SDS011;27993;45.392;10.918;2022-10-16T17:26:02;52.92;;;34.35;;
42338;SDS011;27993;45.392;10.918;2022-10-16T17:28:34;49.35;;;33.13;;
42338;SDS011;27993;45.392;10.918;2022-10-16T17:31:12;57.00;;;34.42;;